createdAt,value
2023-02-19T00:01:46.982Z,12.01
2023-02-19T00:04:21.561Z,12.11
2023-02-19T00:06:48.957Z,12.03
2023-02-19T00:09:18.189Z,12.05
2023-02-19T00:11:46.500Z,12.06
2023-02-19T00:14:19.770Z,12.00
2023-02-19T00:16:47.717Z,11.97
2023-02-19T00:19:17.069Z,11.95
2023-02-19T00:21:45.212Z,11.95
2023-02-19T00:24:13.674Z,11.89
2023-02-19T00:26:41.672Z,11.92
2023-02-19T00:29:12.999Z,11.93
2023-02-19T00:31:40.463Z,11.86
2023-02-19T00:34:09.544Z,11.84
2023-02-19T00:36:38.996Z,11.82
2023-02-19T00:39:08.364Z,11.79
2023-02-19T00:41:35.425Z,11.76
2023-02-19T00:44:05.929Z,11.72
2023-02-19T00:46:36.800Z,11.78
2023-02-19T00:49:04.851Z,11.70
2023-02-19T00:51:35.375Z,11.72
2023-02-19T00:54:03.771Z,11.69
2023-02-19T00:56:30.522Z,11.67
2023-02-19T00:58:58.755Z,11.72
2023-02-19T01:01:26.089Z,11.67
2023-02-19T01:03:52.856Z,11.68
2023-02-19T01:06:21.266Z,11.60
2023-02-19T01:08:48.238Z,11.57
2023-02-19T01:11:17.210Z,11.49
2023-02-19T01:13:44.429Z,11.66
2023-02-19T01:16:23.877Z,11.66
2023-02-19T01:18:51.622Z,11.53
2023-02-19T01:21:21.747Z,11.58
2023-02-19T01:23:55.117Z,11.56
2023-02-19T01:26:25.395Z,11.54
2023-02-19T01:28:52.426Z,11.49
2023-02-19T01:31:23.774Z,11.57
2023-02-19T01:33:54.167Z,11.55
2023-02-19T01:36:21.500Z,11.57
2023-02-19T01:38:48.679Z,11.55
2023-02-19T01:41:23.932Z,11.51
2023-02-19T01:43:58.848Z,11.49
2023-02-19T01:46:27.649Z,11.53
2023-02-19T01:48:56.578Z,11.57
2023-02-19T01:51:23.459Z,11.53
2023-02-19T01:53:56.489Z,11.54
2023-02-19T01:56:26.479Z,11.46
2023-02-19T01:58:54.660Z,11.44
2023-02-19T02:01:21.795Z,11.49
2023-02-19T02:03:52.554Z,11.45
2023-02-19T02:06:24.502Z,11.40
2023-02-19T02:09:13.577Z,11.40
2023-02-19T02:11:46.235Z,11.39
2023-02-19T02:14:14.633Z,11.23
2023-02-19T02:16:53.757Z,11.36
2023-02-19T02:19:46.202Z,11.32
2023-02-19T02:22:16.219Z,11.31
2023-02-19T02:25:11.262Z,11.25
2023-02-19T02:27:45.550Z,11.23
2023-02-19T02:30:30.433Z,11.20
2023-02-19T02:33:34.597Z,11.23
2023-02-19T02:36:21.827Z,11.13
2023-02-19T02:38:49.663Z,11.03
2023-02-19T02:41:21.267Z,10.97
2023-02-19T02:43:48.569Z,10.90
2023-02-19T02:46:21.896Z,10.84
2023-02-19T02:49:04.573Z,10.80
2023-02-19T02:51:44.099Z,10.82
2023-02-19T02:54:40.401Z,10.77
2023-02-19T02:57:15.676Z,10.81
2023-02-19T02:59:52.867Z,10.76
2023-02-19T03:02:26.251Z,10.77
2023-02-19T03:05:23.325Z,10.80
2023-02-19T03:08:04.926Z,10.84
2023-02-19T03:10:44.712Z,10.91
2023-02-19T03:13:35.284Z,10.92
2023-02-19T03:16:26.918Z,10.83
2023-02-19T03:19:18.214Z,10.89
2023-02-19T03:21:59.214Z,10.94
2023-02-19T03:24:55.172Z,10.98
2023-02-19T03:27:25.231Z,10.96
2023-02-19T03:29:59.048Z,10.95
2023-02-19T03:32:34.120Z,10.97
2023-02-19T03:35:11.269Z,10.96
2023-02-19T03:37:44.648Z,10.91
2023-02-19T03:40:12.305Z,10.96
2023-02-19T03:42:59.291Z,10.97
2023-02-19T03:45:51.130Z,10.93
2023-02-19T03:48:26.551Z,10.93
2023-02-19T03:51:06.269Z,11.00
2023-02-19T03:53:59.018Z,10.96
2023-02-19T03:56:46.063Z,10.96
2023-02-19T03:59:40.037Z,10.91
2023-02-19T04:02:13.181Z,10.95
2023-02-19T04:04:45.816Z,10.93
2023-02-19T04:07:13.317Z,10.90
2023-02-19T04:09:44.500Z,11.06
2023-02-19T04:12:17.409Z,10.95
2023-02-19T04:14:52.938Z,10.97
2023-02-19T04:17:34.114Z,10.94
2023-02-19T04:20:05.731Z,10.96
2023-02-19T04:22:34.006Z,10.92
2023-02-19T04:25:00.934Z,10.83
2023-02-19T04:27:27.894Z,10.76
2023-02-19T04:29:54.552Z,10.73
2023-02-19T04:32:21.711Z,10.73
2023-02-19T04:34:48.378Z,10.67
2023-02-19T04:37:15.136Z,10.61
2023-02-19T04:39:41.815Z,10.61
2023-02-19T04:42:10.697Z,10.63
2023-02-19T04:44:37.561Z,10.59
2023-02-19T04:47:04.422Z,10.54
2023-02-19T04:49:31.219Z,10.52
2023-02-19T04:51:57.992Z,10.44
2023-02-19T04:54:27.229Z,10.42
2023-02-19T04:56:54.093Z,10.47
2023-02-19T04:59:20.812Z,10.50
2023-02-19T05:01:47.749Z,10.45
2023-02-19T05:04:14.597Z,10.50
2023-02-19T05:06:41.259Z,10.36
2023-02-19T05:09:08.866Z,10.39
2023-02-19T05:11:35.644Z,10.39
2023-02-19T05:14:02.291Z,10.29
2023-02-19T05:16:29.355Z,10.31
2023-02-19T05:18:56.005Z,10.20
2023-02-19T05:21:22.873Z,10.22
2023-02-19T05:23:49.534Z,10.21
2023-02-19T05:26:20.499Z,10.12
2023-02-19T05:28:49.677Z,10.12
2023-02-19T05:31:18.336Z,10.13
2023-02-19T05:33:48.178Z,10.07
2023-02-19T05:36:15.125Z,10.10
2023-02-19T05:38:42.474Z,10.04
2023-02-19T05:41:14.586Z,9.99
2023-02-19T05:43:43.675Z,10.08
2023-02-19T05:46:12.148Z,10.05
2023-02-19T05:48:39.175Z,10.06
2023-02-19T05:51:12.289Z,10.05
2023-02-19T05:53:39.939Z,10.09
2023-02-19T05:56:21.325Z,10.16
2023-02-19T05:58:48.239Z,10.20
2023-02-19T06:01:17.538Z,10.17
2023-02-19T06:03:44.258Z,10.20
2023-02-19T06:06:14.121Z,10.19
2023-02-19T06:08:40.863Z,10.10
2023-02-19T06:11:10.392Z,10.07
2023-02-19T06:13:37.399Z,10.04
2023-02-19T06:16:05.578Z,9.94
2023-02-19T06:18:32.628Z,9.87
2023-02-19T06:21:08.467Z,10.00
2023-02-19T06:23:35.399Z,10.05
2023-02-19T06:26:20.443Z,10.21
2023-02-19T06:28:51.455Z,10.17
2023-02-19T06:31:20.011Z,10.29
2023-02-19T06:33:47.100Z,10.30
2023-02-19T06:36:18.034Z,10.35
2023-02-19T06:38:45.298Z,10.28
2023-02-19T06:41:13.359Z,10.38
2023-02-19T06:43:40.787Z,10.36
2023-02-19T06:46:08.220Z,10.38
2023-02-19T06:48:35.891Z,10.29
2023-02-19T06:51:03.640Z,10.39
2023-02-19T06:53:33.341Z,10.26
2023-02-19T06:56:05.524Z,10.25
2023-02-19T06:58:33.077Z,10.19
2023-02-19T07:01:00.108Z,10.21
2023-02-19T07:03:26.977Z,10.21
2023-02-19T07:05:54.082Z,10.11
2023-02-19T07:08:21.286Z,10.09
2023-02-19T07:10:56.460Z,10.13
2023-02-19T07:13:25.130Z,10.04
2023-02-19T07:15:59.762Z,10.11
2023-02-19T07:18:29.224Z,10.10
2023-02-19T07:20:56.065Z,10.04
2023-02-19T07:23:22.736Z,10.03
2023-02-19T07:25:49.414Z,10.02
2023-02-19T07:28:16.883Z,9.98
2023-02-19T07:30:43.802Z,9.84
2023-02-19T07:33:11.326Z,9.80
2023-02-19T07:35:38.132Z,9.72
2023-02-19T07:38:04.958Z,9.79
2023-02-19T07:40:31.633Z,9.79
2023-02-19T07:42:59.681Z,9.87
2023-02-19T07:45:26.746Z,9.89
2023-02-19T07:47:53.456Z,9.84
2023-02-19T07:50:20.284Z,9.82
2023-02-19T07:52:47.050Z,9.99
2023-02-19T07:55:13.926Z,10.05
2023-02-19T07:57:40.694Z,10.08
2023-02-19T08:00:07.969Z,10.07
2023-02-19T08:02:57.844Z,10.04
2023-02-19T08:05:24.540Z,10.05
2023-02-19T08:07:51.805Z,10.03
2023-02-19T08:10:38.892Z,10.03
2023-02-19T08:13:25.298Z,10.16
2023-02-19T08:16:15.668Z,10.23
2023-02-19T08:18:44.470Z,10.23
2023-02-19T08:21:12.121Z,10.25
2023-02-19T08:23:39.871Z,10.28
2023-02-19T08:26:07.540Z,10.30
2023-02-19T08:28:34.504Z,10.30
2023-02-19T08:31:03.112Z,10.21
2023-02-19T08:33:30.765Z,10.27
2023-02-19T08:36:01.212Z,10.20
2023-02-19T08:38:28.009Z,10.34
2023-02-19T08:40:56.090Z,10.40
2023-02-19T08:43:23.697Z,10.54
2023-02-19T08:45:53.315Z,10.54
2023-02-19T08:48:20.600Z,10.53
2023-02-19T08:50:57.305Z,10.53
2023-02-19T08:53:25.612Z,10.67
2023-02-19T08:55:52.902Z,10.66
2023-02-19T08:58:19.853Z,10.63
2023-02-19T09:00:50.494Z,10.71
2023-02-19T09:03:17.489Z,10.60
2023-02-19T09:05:46.870Z,10.76
2023-02-19T09:08:13.879Z,10.69
2023-02-19T09:10:40.580Z,10.82
2023-02-19T09:13:09.753Z,10.93
2023-02-19T09:15:39.135Z,11.05
2023-02-19T09:18:05.893Z,11.10
2023-02-19T09:20:32.633Z,11.02
2023-02-19T09:22:59.706Z,11.06
2023-02-19T09:25:26.527Z,11.14
2023-02-19T09:27:56.993Z,10.96
2023-02-19T09:30:27.079Z,10.92
2023-02-19T09:32:54.040Z,11.00
2023-02-19T09:35:20.865Z,10.99
2023-02-19T09:37:47.709Z,11.07
2023-02-19T09:40:14.799Z,11.20
2023-02-19T09:42:43.558Z,11.25
2023-02-19T09:45:19.849Z,11.24
2023-02-19T09:47:47.463Z,11.21
2023-02-19T09:50:20.457Z,11.15
2023-02-19T09:52:57.068Z,11.12
2023-02-19T09:55:39.794Z,11.16
2023-02-19T09:58:30.748Z,11.30
2023-02-19T10:01:00.425Z,11.49
2023-02-19T10:03:35.439Z,11.48
2023-02-19T10:06:09.440Z,11.57
2023-02-19T10:08:41.350Z,11.28
2023-02-19T10:11:13.532Z,11.41
2023-02-19T10:13:53.566Z,11.48
2023-02-19T10:16:27.322Z,11.52
2023-02-19T10:18:54.201Z,11.51
2023-02-19T10:21:25.292Z,11.66
2023-02-19T10:23:56.000Z,11.40
2023-02-19T10:26:23.982Z,11.45
2023-02-19T10:28:50.645Z,11.40
2023-02-19T10:31:24.305Z,11.20
2023-02-19T10:33:56.187Z,11.24
2023-02-19T10:36:40.081Z,11.30
2023-02-19T10:39:22.089Z,11.34
2023-02-19T10:41:50.749Z,11.33
2023-02-19T10:44:23.688Z,11.26
2023-02-19T10:46:57.205Z,11.37
2023-02-19T10:49:31.240Z,11.43
2023-02-19T10:52:03.003Z,11.31
2023-02-19T10:54:32.816Z,11.49
2023-02-19T10:57:16.209Z,11.67
2023-02-19T10:59:54.503Z,11.75
2023-02-19T11:02:21.945Z,11.44
2023-02-19T11:05:07.306Z,11.37
2023-02-19T11:07:36.487Z,11.29
2023-02-19T11:10:07.175Z,11.39
2023-02-19T11:12:35.169Z,11.50
2023-02-19T11:15:21.568Z,11.59
2023-02-19T11:17:56.981Z,11.76
2023-02-19T11:20:24.144Z,11.81
2023-02-19T11:22:52.129Z,11.82
2023-02-19T11:25:25.896Z,11.85
2023-02-19T11:28:13.428Z,11.77
2023-02-19T11:30:42.680Z,11.99
2023-02-19T11:33:25.724Z,12.07
2023-02-19T11:36:00.732Z,12.06
2023-02-19T11:38:27.970Z,11.67
2023-02-19T11:41:33.260Z,11.92
2023-02-19T11:44:32.365Z,12.01
2023-02-19T11:47:02.243Z,12.11
2023-02-19T11:50:03.268Z,11.97
2023-02-19T11:52:30.101Z,11.86
2023-02-19T11:55:21.496Z,11.77
2023-02-19T11:58:04.618Z,11.85
2023-02-19T12:00:35.544Z,11.91
2023-02-19T12:03:26.011Z,11.90
2023-02-19T12:06:04.778Z,12.15
2023-02-19T12:08:59.486Z,12.07
2023-02-19T12:11:55.470Z,11.94
2023-02-19T12:14:43.840Z,11.86
2023-02-19T12:17:52.096Z,11.79
2023-02-19T12:20:51.708Z,11.82
2023-02-19T12:23:44.232Z,11.82
2023-02-19T12:26:32.541Z,11.91
2023-02-19T12:29:25.400Z,12.15
2023-02-19T12:32:15.313Z,12.11
2023-02-19T12:34:42.255Z,11.61
2023-02-19T12:37:31.870Z,11.78
2023-02-19T12:40:17.741Z,11.90
2023-02-19T12:43:03.786Z,12.19
2023-02-19T12:45:46.683Z,12.13
2023-02-19T12:48:24.911Z,11.97
2023-02-19T12:50:59.900Z,11.75
2023-02-19T12:53:45.906Z,11.90
2023-02-19T12:57:00.755Z,11.70
2023-02-19T12:59:27.356Z,11.60
2023-02-19T13:02:23.429Z,11.64
2023-02-19T13:05:02.811Z,11.73
2023-02-19T13:07:39.321Z,11.60
2023-02-19T13:10:31.149Z,11.44
2023-02-19T13:13:06.399Z,11.06
2023-02-19T13:15:38.764Z,11.03
2023-02-19T13:18:18.826Z,11.03
2023-02-19T13:20:51.727Z,10.99
2023-02-19T13:23:52.386Z,11.08
2023-02-19T13:26:31.344Z,10.79
2023-02-19T13:29:35.494Z,10.73
2023-02-19T13:32:39.602Z,10.49
2023-02-19T13:35:31.443Z,10.34
2023-02-19T13:38:02.281Z,10.17
2023-02-19T13:40:35.862Z,10.25
2023-02-19T13:43:04.556Z,10.27
2023-02-19T13:45:40.487Z,10.39
2023-02-19T13:48:25.254Z,10.17
2023-02-19T13:51:18.703Z,10.20
2023-02-19T13:53:45.825Z,10.16
2023-02-19T13:56:37.030Z,10.21
2023-02-19T13:59:39.158Z,10.20
2023-02-19T14:02:15.867Z,10.21
2023-02-19T14:04:52.555Z,10.21
2023-02-19T14:07:19.418Z,10.22
2023-02-19T14:09:58.962Z,10.21
2023-02-19T14:12:35.212Z,10.18
2023-02-19T14:15:23.661Z,10.29
2023-02-19T14:17:50.980Z,10.21
2023-02-19T14:20:17.769Z,10.22
2023-02-19T14:22:51.674Z,10.21
2023-02-19T14:25:30.449Z,10.19
2023-02-19T14:28:17.658Z,10.23
2023-02-19T14:30:58.768Z,10.27
2023-02-19T14:33:31.798Z,10.27
2023-02-19T14:36:06.129Z,10.19
2023-02-19T14:38:39.194Z,10.27
2023-02-19T14:41:11.003Z,10.26
2023-02-19T14:43:38.988Z,10.16
2023-02-19T14:46:29.374Z,10.23
2023-02-19T14:49:02.928Z,10.18
2023-02-19T14:51:42.289Z,10.15
2023-02-19T14:54:41.077Z,10.16
2023-02-19T14:57:21.128Z,10.20
2023-02-19T15:00:00.350Z,10.26
2023-02-19T15:02:30.009Z,10.09
2023-02-19T15:04:57.867Z,10.23
2023-02-19T15:07:30.114Z,10.30
2023-02-19T15:10:05.069Z,10.28
2023-02-19T15:12:47.032Z,10.14
2023-02-19T15:15:25.049Z,10.06
2023-02-19T15:17:54.959Z,9.87
2023-02-19T15:20:28.452Z,9.86
2023-02-19T15:22:57.301Z,9.84
2023-02-19T15:25:30.626Z,9.87
2023-02-19T15:28:19.822Z,9.83
2023-02-19T15:30:46.843Z,9.76
2023-02-19T15:33:19.211Z,9.65
2023-02-19T15:35:57.410Z,9.69
2023-02-19T15:38:29.688Z,9.70
2023-02-19T15:40:58.530Z,9.53
2023-02-19T15:43:45.368Z,9.64
2023-02-19T15:46:20.442Z,9.64
2023-02-19T15:48:59.222Z,9.59
2023-02-19T15:51:53.464Z,9.41
2023-02-19T15:54:30.758Z,9.19
2023-02-19T15:57:10.347Z,9.10
2023-02-19T15:59:53.153Z,8.98
2023-02-19T16:02:23.090Z,8.99
2023-02-19T16:04:50.443Z,8.91
2023-02-19T16:07:28.953Z,8.88
2023-02-19T16:10:27.032Z,9.00
2023-02-19T16:13:02.393Z,8.93
2023-02-19T16:15:31.454Z,8.98
2023-02-19T16:18:01.813Z,8.97
2023-02-19T16:20:35.082Z,9.04
2023-02-19T16:23:15.469Z,9.04
2023-02-19T16:25:46.055Z,8.98
2023-02-19T16:28:24.138Z,9.14
2023-02-19T16:31:04.436Z,9.15
2023-02-19T16:33:39.483Z,9.16
2023-02-19T16:36:38.662Z,9.22
2023-02-19T16:39:08.538Z,9.13
2023-02-19T16:41:51.311Z,9.12
2023-02-19T16:44:39.013Z,8.97
2023-02-19T16:47:25.309Z,8.91
2023-02-19T16:49:59.566Z,8.95
2023-02-19T16:52:29.582Z,9.12
2023-02-19T16:54:56.963Z,8.96
2023-02-19T16:57:29.815Z,8.86
2023-02-19T16:59:57.537Z,8.93
2023-02-19T17:02:26.736Z,9.00
2023-02-19T17:04:56.288Z,8.77
2023-02-19T17:07:23.464Z,8.58
2023-02-19T17:09:50.163Z,8.67
2023-02-19T17:12:18.143Z,8.49
2023-02-19T17:14:45.294Z,8.59
2023-02-19T17:17:14.155Z,8.65
2023-02-19T17:19:40.918Z,8.56
2023-02-19T17:22:09.066Z,8.66
2023-02-19T17:24:35.947Z,8.75
2023-02-19T17:27:02.729Z,8.70
2023-02-19T17:29:33.811Z,8.64
2023-02-19T17:32:04.231Z,8.67
2023-02-19T17:34:41.393Z,8.66
2023-02-19T17:37:09.546Z,8.56
2023-02-19T17:39:38.305Z,8.41
2023-02-19T17:42:06.105Z,8.28
2023-02-19T17:44:32.956Z,8.26
2023-02-19T17:46:59.842Z,8.03
2023-02-19T17:49:26.662Z,7.95
2023-02-19T17:51:54.106Z,7.87
2023-02-19T17:54:20.998Z,7.77
2023-02-19T17:56:47.916Z,7.72
2023-02-19T17:59:15.615Z,7.65
2023-02-19T18:01:46.110Z,7.60
2023-02-19T18:04:14.530Z,7.57
2023-02-19T18:06:42.936Z,7.54
2023-02-19T18:09:11.456Z,7.45
2023-02-19T18:11:39.409Z,7.38
2023-02-19T18:14:06.365Z,7.39
2023-02-19T18:16:33.434Z,7.45
2023-02-19T18:19:02.231Z,7.44
2023-02-19T18:21:30.597Z,7.41
2023-02-19T18:23:57.355Z,7.29
2023-02-19T18:26:25.146Z,7.34
2023-02-19T18:28:55.373Z,7.30
2023-02-19T18:31:22.167Z,7.24
2023-02-19T18:33:49.022Z,7.19
2023-02-19T18:36:16.358Z,7.21
2023-02-19T18:38:46.658Z,7.18
2023-02-19T18:41:14.656Z,7.20
2023-02-19T18:43:42.231Z,7.21
2023-02-19T18:46:10.105Z,7.24
2023-02-19T18:48:37.279Z,7.28
2023-02-19T18:51:04.481Z,7.22
2023-02-19T18:53:31.488Z,7.22
2023-02-19T18:55:59.716Z,7.22
2023-02-19T18:58:28.445Z,7.13
2023-02-19T19:00:55.118Z,7.13
2023-02-19T19:03:21.893Z,7.03
2023-02-19T19:05:50.520Z,6.96
2023-02-19T19:08:17.243Z,6.91
2023-02-19T19:10:44.252Z,6.83
2023-02-19T19:13:10.928Z,6.70
2023-02-19T19:15:39.667Z,6.66
2023-02-19T19:18:06.402Z,6.60
2023-02-19T19:20:33.596Z,6.54
2023-02-19T19:23:00.595Z,6.52
2023-02-19T19:25:27.645Z,6.45
2023-02-19T19:27:57.472Z,6.43
2023-02-19T19:30:24.375Z,6.44
2023-02-19T19:32:52.615Z,6.48
2023-02-19T19:35:20.948Z,6.48
2023-02-19T19:37:47.803Z,6.46
2023-02-19T19:40:17.444Z,6.46
2023-02-19T19:42:44.684Z,6.48
2023-02-19T19:45:12.528Z,6.45
2023-02-19T19:47:39.316Z,6.50
2023-02-19T19:50:06.562Z,6.47
2023-02-19T19:52:33.523Z,6.44
2023-02-19T19:55:00.824Z,6.42
2023-02-19T19:57:27.560Z,6.40
2023-02-19T19:59:54.277Z,6.41
2023-02-19T20:02:21.035Z,6.31
2023-02-19T20:04:47.792Z,6.29
2023-02-19T20:07:14.446Z,6.28
2023-02-19T20:09:41.728Z,6.24
2023-02-19T20:12:09.373Z,6.19
2023-02-19T20:14:36.112Z,6.15
2023-02-19T20:17:02.856Z,6.15
2023-02-19T20:19:29.798Z,6.17
2023-02-19T20:21:56.781Z,6.15
2023-02-19T20:24:31.246Z,6.21
2023-02-19T20:27:00.206Z,6.22
2023-02-19T20:29:29.025Z,6.22
2023-02-19T20:31:59.815Z,6.24
2023-02-19T20:34:27.540Z,6.25
2023-02-19T20:36:54.766Z,6.28
2023-02-19T20:39:23.012Z,6.24
2023-02-19T20:41:51.556Z,6.21
2023-02-19T20:44:19.337Z,6.22
2023-02-19T20:46:49.027Z,6.11
2023-02-19T20:49:17.769Z,6.04
2023-02-19T20:51:52.167Z,6.05
2023-02-19T20:54:20.412Z,5.99
2023-02-19T20:56:49.009Z,5.99
2023-02-19T20:59:17.552Z,5.91
2023-02-19T21:01:44.441Z,5.92
2023-02-19T21:04:11.241Z,5.82
2023-02-19T21:06:38.607Z,5.79
2023-02-19T21:09:05.863Z,5.76
2023-02-19T21:11:33.362Z,5.81
2023-02-19T21:14:00.149Z,5.78
2023-02-19T21:16:28.395Z,5.75
2023-02-19T21:18:55.815Z,5.73
2023-02-19T21:21:25.380Z,5.77
2023-02-19T21:23:53.335Z,5.76
2023-02-19T21:26:20.704Z,5.77
2023-02-19T21:28:47.392Z,5.84
2023-02-19T21:31:14.251Z,5.83
2023-02-19T21:33:41.286Z,5.76
2023-02-19T21:36:10.670Z,5.75
2023-02-19T21:38:38.302Z,5.80
2023-02-19T21:41:05.272Z,5.85
2023-02-19T21:43:32.115Z,5.91
2023-02-19T21:45:58.771Z,5.87
2023-02-19T21:48:25.971Z,5.91
2023-02-19T21:50:52.846Z,5.91
2023-02-19T21:53:19.523Z,5.81
2023-02-19T21:55:57.817Z,5.91
2023-02-19T21:58:24.829Z,5.87
2023-02-19T22:00:53.683Z,5.90
2023-02-19T22:03:20.857Z,5.96
2023-02-19T22:05:48.954Z,5.87
2023-02-19T22:08:17.464Z,5.90
2023-02-19T22:10:44.300Z,5.95
2023-02-19T22:13:11.494Z,5.97
2023-02-19T22:15:38.982Z,5.95
2023-02-19T22:18:08.236Z,5.90
2023-02-19T22:20:37.618Z,5.92
2023-02-19T22:23:04.512Z,5.91
2023-02-19T22:25:31.070Z,5.84
2023-02-19T22:27:59.468Z,5.87
2023-02-19T22:30:27.316Z,5.89
2023-02-19T22:32:54.147Z,5.96
2023-02-19T22:35:21.085Z,5.98
2023-02-19T22:37:47.914Z,5.97
2023-02-19T22:40:14.569Z,6.05
2023-02-19T22:42:41.760Z,6.07
2023-02-19T22:45:11.216Z,6.08
2023-02-19T22:47:40.009Z,6.14
2023-02-19T22:50:09.010Z,6.09
2023-02-19T22:52:35.722Z,6.09
2023-02-19T22:55:07.649Z,6.12
2023-02-19T22:57:35.060Z,6.17
2023-02-19T23:00:02.482Z,6.15
2023-02-19T23:02:29.254Z,6.26
2023-02-19T23:04:55.878Z,6.29
2023-02-19T23:07:23.602Z,6.40
2023-02-19T23:09:50.303Z,6.39
2023-02-19T23:12:17.181Z,6.45
2023-02-19T23:14:43.771Z,6.49
2023-02-19T23:17:13.209Z,6.51
2023-02-19T23:19:39.828Z,6.53
2023-02-19T23:22:09.278Z,6.65
2023-02-19T23:24:39.984Z,6.74
2023-02-19T23:27:08.076Z,6.80
2023-02-19T23:29:34.745Z,6.80
2023-02-19T23:32:01.466Z,6.84
2023-02-19T23:34:28.383Z,6.89
2023-02-19T23:36:55.498Z,6.89
2023-02-19T23:39:23.052Z,6.93
2023-02-19T23:41:52.833Z,6.90
2023-02-19T23:44:21.460Z,6.87
2023-02-19T23:46:49.796Z,6.86
2023-02-19T23:49:17.702Z,6.91
2023-02-19T23:51:45.007Z,6.86
2023-02-19T23:54:12.477Z,6.88
2023-02-19T23:56:39.182Z,6.84
2023-02-19T23:59:06.061Z,6.76
